This is the latest recevied weather packets stored in our database for station/object OZ1IEP-5. If no packets are shown the sender has not sent any weather packets the latest 1 day(s).
| Time | Temp. | Humidity | Pressure | Rain* | Wind** | Luminosity | Snow |
|---|---|---|---|---|---|---|---|
| 1778006406 | 9.44° C | 56% | 1009.8 hPa | 0 mm | 0 m/s | 11 W/m² | - |
| 1778005808 | 9.44° C | 55% | 1009.8 hPa | 0 mm | 0.45 m/s, 3° | 14 W/m² | - |
| 1778005205 | 9.44° C | 54% | 1009.8 hPa | 0 mm | 0.45 m/s, 8° | 19 W/m² | - |
| 1778004606 | 10° C | 52% | 1009.7 hPa | 0 mm | 1.34 m/s, 0° | 28 W/m² | - |
| 1778004008 | 10.56° C | 50% | 1009.6 hPa | 0 mm | 0.45 m/s, 359° | 39 W/m² | - |
| 1778003405 | 10.56° C | 54% | 1009.7 hPa | 0 mm | 0.45 m/s, 358° | 93 W/m² | - |
| 1778002806 | 10.56° C | 57% | 1009.7 hPa | 0 mm | 1.34 m/s, 1° | 135 W/m² | - |
| 1778002209 | 10.56° C | 55% | 1009.7 hPa | 0 mm | 2.24 m/s, 359° | 40 W/m² | - |
| 1778001605 | 11.11° C | 59% | 1009.7 hPa | 0 mm | 0.45 m/s, 22° | 86 W/m² | - |
| 1778001005 | 11.11° C | 57% | 1009.8 hPa | 0 mm | 1.34 m/s, 356° | 44 W/m² | - |
| 1778000408 | 11.11° C | 56% | 1009.7 hPa | 0 mm | 2.24 m/s, 4° | 60 W/m² | - |
| 1777999806 | 11.11° C | 56% | 1009.8 hPa | 0 mm | 2.24 m/s, 1° | 51 W/m² | - |
| 1777999206 | 11.11° C | 59% | 1009.7 hPa | 0 mm | 1.34 m/s, 24° | 47 W/m² | - |
| 1777998608 | 11.11° C | 58% | 1009.7 hPa | 0 mm | 0.89 m/s, 0° | 46 W/m² | - |
| 1777998006 | 11.11° C | 56% | 1009.6 hPa | 0 mm | 1.34 m/s, 359° | 44 W/m² | - |
| 1777997406 | 11.11° C | 62% | 1009.6 hPa | 0 mm | 2.24 m/s, 355° | 88 W/m² | - |
| 1777996808 | 11.11° C | 59% | 1009.7 hPa | 0 mm | 3.58 m/s, 350° | 46 W/m² | - |
| 1777996206 | 11.11° C | 57% | 1009.7 hPa | 0 mm | 3.13 m/s, 0° | 49 W/m² | - |
| 1777995606 | 11.11° C | 56% | 1009.7 hPa | 0 mm | 2.24 m/s, 353° | 49 W/m² | - |
| 1777995007 | 11.11° C | 53% | 1009.8 hPa | 0 mm | 4.02 m/s, 356° | 56 W/m² | - |
| 1777994406 | 11.67° C | 51% | 1009.8 hPa | 0 mm | 5.36 m/s, 353° | 429 W/m² | - |
| 1777993805 | 11.67° C | 52% | 1009.8 hPa | 0 mm | 4.02 m/s, 345° | 274 W/m² | - |
| 1777993208 | 11.67° C | 59% | 1009.8 hPa | 0 mm | 2.24 m/s, 341° | 54 W/m² | - |
| 1777992606 | 11.67° C | 52% | 1009.8 hPa | 0 mm | 2.68 m/s, 1° | 91 W/m² | - |
| 1777992006 | 12.22° C | 51% | 1009.7 hPa | 0 mm | 4.47 m/s, 337° | 570 W/m² | - |
* Rain latest hour (hover to see other rain measurements)
** Current wind speed in m/s (hover to see current wind gust speed)